Time;durP1;ratioP1;P1;durP2;ratioP2;P2;SDS_P1;SDS_P2;PMS_P1;PMS_P2;Temp;Humidity;BMP_temperature;BMP_pressure;BME280_temperature;BME280_humidity;BME280_pressure;Samples;Min_cycle;Max_cycle;Signal;HPM_P1;HPM_P2
2023/07/27 00:00:53;;;;;;;6.00;3.70;;;19.20;99.90;;;;;;5072141;28;20208;-81
2023/07/27 00:03:18;;;;;;;5.27;3.57;;;19.00;99.90;;;;;;5072685;28;20252;-81
2023/07/27 00:05:44;;;;;;;6.10;3.57;;;18.80;99.90;;;;;;5054383;28;20176;-81
2023/07/27 00:08:10;;;;;;;6.23;3.80;;;18.90;99.90;;;;;;5072528;28;20298;-82
2023/07/27 00:10:36;;;;;;;5.43;3.20;;;18.80;99.90;;;;;;5054220;28;20178;-80
2023/07/27 00:13:01;;;;;;;4.60;2.97;;;18.60;99.90;;;;;;5072655;28;20218;-80
2023/07/27 00:15:27;;;;;;;4.80;3.43;;;18.50;99.90;;;;;;5054186;28;20176;-81
2023/07/27 00:17:52;;;;;;;5.77;3.50;;;18.50;99.90;;;;;;5072966;28;20695;-81
2023/07/27 00:20:18;;;;;;;6.37;3.90;;;18.30;99.90;;;;;;5092090;28;20230;-81
2023/07/27 00:22:44;;;;;;;5.13;3.33;;;18.30;99.90;;;;;;5094051;28;20251;-79
2023/07/27 00:25:09;;;;;;;6.83;4.30;;;18.30;99.90;;;;;;5082604;28;20630;-81
2023/07/27 00:27:35;;;;;;;5.33;3.93;;;18.40;99.90;;;;;;5072807;28;20602;-81
2023/07/27 00:30:03;;;;;;;7.57;4.13;;;18.40;99.90;;;;;;5054332;28;20652;-80
2023/07/27 00:32:29;;;;;;;6.80;4.43;;;18.50;99.90;;;;;;5054107;28;20242;-81
2023/07/27 00:34:54;;;;;;;5.57;4.03;;;18.50;99.90;;;;;;5072768;28;20622;-80
2023/07/27 00:37:20;;;;;;;6.60;4.60;;;18.40;99.90;;;;;;5054314;28;20647;-80
2023/07/27 00:39:46;;;;;;;7.10;4.27;;;18.40;99.90;;;;;;5072750;28;20288;-80
2023/07/27 00:42:12;;;;;;;9.47;4.60;;;18.50;99.90;;;;;;5054565;28;20174;-80
2023/07/27 00:44:37;;;;;;;9.10;4.47;;;18.50;99.90;;;;;;5054173;28;20166;-81
2023/07/27 00:47:03;;;;;;;8.43;4.63;;;18.50;99.90;;;;;;5072732;28;20175;-81
2023/07/27 00:49:30;;;;;;;7.57;4.90;;;18.50;99.90;;;;;;5072158;28;20171;-80
2023/07/27 00:51:56;;;;;;;8.00;4.70;;;18.50;99.90;;;;;;5073160;28;20177;-81
2023/07/27 00:54:22;;;;;;;7.43;4.53;;;18.40;99.90;;;;;;5076609;28;20659;-81
2023/07/27 00:56:49;;;;;;;6.53;4.53;;;18.50;99.90;;;;;;5075540;28;20198;-80
2023/07/27 00:59:15;;;;;;;10.20;5.73;;;18.60;99.90;;;;;;5076022;28;20180;-81
2023/07/27 01:01:40;;;;;;;9.03;5.13;;;18.50;99.90;;;;;;5057999;28;20217;-79
2023/07/27 01:04:06;;;;;;;9.00;5.23;;;18.40;99.90;;;;;;5058383;28;20604;-81
2023/07/27 01:06:32;;;;;;;6.43;5.13;;;18.30;99.90;;;;;;5057166;28;20523;-80
2023/07/27 01:08:58;;;;;;;8.27;5.47;;;18.10;99.90;;;;;;5058392;28;20177;-81
2023/07/27 01:11:49;;;;;;;10.53;5.87;;;18.10;99.90;;;;;;5058075;28;20656;-81
2023/07/27 01:14:23;;;;;;;7.83;5.67;;;18.10;99.90;;;;;;5057664;28;20662;-80
2023/07/27 01:17:03;;;;;;;11.90;6.23;;;18.20;99.90;;;;;;5057228;28;20257;-80
2023/07/27 01:19:56;;;;;;;7.13;5.37;;;18.20;99.90;;;;;;5057994;28;20251;-80
2023/07/27 01:22:31;;;;;;;10.00;5.80;;;18.20;99.90;;;;;;5057080;28;20279;-80
2023/07/27 01:25:34;;;;;;;9.90;6.23;;;18.10;99.90;;;;;;5075832;28;20173;-79
2023/07/27 01:28:33;;;;;;;8.27;5.60;;;18.00;99.90;;;;;;5075432;28;20189;-80
2023/07/27 01:31:08;;;;;;;7.83;5.27;;;18.00;99.90;;;;;;5056958;28;20233;-79
2023/07/27 01:33:43;;;;;;;9.77;4.70;;;17.90;99.90;;;;;;5075147;28;20178;-80
2023/07/27 01:36:17;;;;;;;6.17;4.27;;;17.80;99.90;;;;;;5074517;28;20168;-80
2023/07/27 01:38:45;;;;;;;7.30;4.87;;;17.60;99.90;;;;;;5091042;28;20184;-80
2023/07/27 01:41:13;;;;;;;7.83;4.93;;;17.60;99.90;;;;;;5075571;28;20293;-81
2023/07/27 01:43:43;;;;;;;6.63;4.50;;;17.70;99.90;;;;;;5074178;28;20169;-80
2023/07/27 01:46:11;;;;;;;9.57;6.80;;;17.60;99.90;;;;;;5090215;28;20176;-81
2023/07/27 01:48:40;;;;;;;6.10;4.80;;;17.50;99.90;;;;;;5075701;28;20194;-80
2023/07/27 01:51:08;;;;;;;6.97;4.60;;;17.50;99.90;;;;;;5075667;28;20641;-81
2023/07/27 01:53:35;;;;;;;7.43;4.43;;;17.40;99.90;;;;;;5075460;28;20166;-81
2023/07/27 01:56:03;;;;;;;5.77;4.20;;;17.40;99.90;;;;;;5075409;28;20228;-80
2023/07/27 01:58:30;;;;;;;6.10;4.17;;;17.50;99.90;;;;;;5090685;28;20185;-80
2023/07/27 02:00:56;;;;;;;5.03;3.83;;;17.40;99.90;;;;;;5057203;28;20291;-79
2023/07/27 02:03:22;;;;;;;7.07;4.23;;;17.30;99.90;;;;;;5074471;28;20179;-81
2023/07/27 02:05:48;;;;;;;6.47;4.03;;;17.20;99.90;;;;;;5075091;28;20174;-80
2023/07/27 02:08:14;;;;;;;6.10;3.83;;;17.20;99.90;;;;;;5057050;28;20176;-80
2023/07/27 02:10:41;;;;;;;5.30;3.50;;;17.20;99.90;;;;;;5057112;28;20165;-81
2023/07/27 02:13:14;;;;;;;6.93;3.40;;;17.10;99.90;;;;;;5074563;28;20189;-81
2023/07/27 02:15:43;;;;;;;4.97;3.10;;;17.00;99.90;;;;;;5074804;28;20182;-80
2023/07/27 02:18:19;;;;;;;5.60;3.97;;;17.00;99.90;;;;;;5074865;28;20159;-79
2023/07/27 02:20:48;;;;;;;4.87;3.30;;;16.90;99.90;;;;;;5074772;28;20233;-79
2023/07/27 02:23:15;;;;;;;6.17;3.20;;;16.80;99.90;;;;;;5090773;28;20637;-81
2023/07/27 02:25:41;;;;;;;5.57;3.13;;;16.80;99.90;;;;;;5074319;28;20172;-81
2023/07/27 02:28:10;;;;;;;5.60;3.37;;;16.70;99.90;;;;;;5074589;28;20314;-80
2023/07/27 02:30:36;;;;;;;4.87;2.80;;;16.70;99.90;;;;;;5056593;28;20183;-80
2023/07/27 02:33:03;;;;;;;4.23;3.30;;;16.60;99.90;;;;;;5074665;28;20171;-80
2023/07/27 02:35:29;;;;;;;5.23;3.17;;;16.70;99.90;;;;;;5077670;28;20176;-80
2023/07/27 02:37:54;;;;;;;5.23;3.17;;;16.70;99.90;;;;;;5076809;28;20199;-80
2023/07/27 02:40:20;;;;;;;5.30;2.97;;;16.70;99.90;;;;;;5065829;28;20214;-80
2023/07/27 02:42:45;;;;;;;7.10;4.30;;;16.60;99.90;;;;;;5074764;28;20224;-79
2023/07/27 02:45:11;;;;;;;4.10;2.77;;;16.60;99.90;;;;;;5056135;28;20176;-80
2023/07/27 02:47:37;;;;;;;4.87;2.90;;;16.60;99.90;;;;;;5056518;28;20310;-80
2023/07/27 02:50:04;;;;;;;4.87;2.73;;;16.60;99.90;;;;;;5056425;28;20229;-80
2023/07/27 02:52:29;;;;;;;4.83;3.13;;;16.60;99.90;;;;;;5056192;28;20575;-80
2023/07/27 02:54:55;;;;;;;5.03;3.20;;;16.70;99.90;;;;;;5055921;28;20271;-80
2023/07/27 02:57:21;;;;;;;4.57;3.00;;;16.60;99.90;;;;;;5056360;28;20203;-80
2023/07/27 02:59:46;;;;;;;8.17;3.03;;;16.60;99.90;;;;;;5074020;28;20212;-80
2023/07/27 03:02:12;;;;;;;5.27;2.83;;;16.60;99.90;;;;;;5056108;28;20181;-81
2023/07/27 03:04:37;;;;;;;3.43;2.60;;;16.60;99.90;;;;;;5082854;28;20172;-81
2023/07/27 03:07:03;;;;;;;3.43;2.80;;;16.60;99.90;;;;;;5094237;28;20171;-80
2023/07/27 03:09:29;;;;;;;4.53;2.80;;;16.70;99.90;;;;;;5075345;28;20281;-81
2023/07/27 03:11:55;;;;;;;5.97;2.90;;;16.80;99.90;;;;;;5094129;28;20549;-80
2023/07/27 03:14:21;;;;;;;3.57;2.60;;;16.70;99.90;;;;;;5075884;28;20693;-81
2023/07/27 03:16:46;;;;;;;5.63;3.10;;;16.70;99.90;;;;;;5093987;28;20278;-81
2023/07/27 03:19:12;;;;;;;4.63;3.03;;;16.60;99.90;;;;;;5076056;28;20180;-80
2023/07/27 03:21:37;;;;;;;3.83;2.80;;;16.60;99.90;;;;;;5093539;28;20175;-80
2023/07/27 03:24:03;;;;;;;5.00;3.23;;;16.70;99.90;;;;;;5093619;28;20169;-80
2023/07/27 03:26:29;;;;;;;4.47;3.03;;;16.60;99.90;;;;;;5093943;28;20202;-80
2023/07/27 03:28:55;;;;;;;4.97;3.23;;;16.70;99.90;;;;;;5075505;28;20270;-81
2023/07/27 03:31:23;;;;;;;4.37;2.90;;;16.60;99.90;;;;;;5093830;28;20203;-80
2023/07/27 03:33:49;;;;;;;4.87;2.93;;;16.70;99.90;;;;;;5075586;28;20183;-80
2023/07/27 03:36:16;;;;;;;4.03;3.03;;;16.70;99.90;;;;;;5093528;28;20647;-79
2023/07/27 03:38:42;;;;;;;7.83;6.73;;;16.70;99.90;;;;;;5093308;28;20186;-81
2023/07/27 03:41:08;;;;;;;3.40;2.83;;;16.80;99.90;;;;;;5093712;28;20213;-80
2023/07/27 03:43:33;;;;;;;4.77;2.80;;;16.70;99.90;;;;;;5093436;28;20163;-80
2023/07/27 03:45:59;;;;;;;4.67;2.87;;;16.70;99.90;;;;;;5075466;28;20184;-81
2023/07/27 03:48:25;;;;;;;5.13;3.10;;;16.70;99.90;;;;;;5093772;28;20280;-80
2023/07/27 03:50:52;;;;;;;4.77;3.07;;;16.70;99.90;;;;;;5093617;28;20170;-80
2023/07/27 03:53:18;;;;;;;4.83;2.87;;;16.70;99.90;;;;;;5075124;28;20586;-82
2023/07/27 03:55:44;;;;;;;5.03;2.93;;;16.80;99.90;;;;;;5092150;28;20156;-81
2023/07/27 03:58:10;;;;;;;3.73;3.07;;;16.80;99.90;;;;;;5093535;28;20174;-80
2023/07/27 04:00:35;;;;;;;3.77;3.13;;;16.80;99.90;;;;;;5092800;28;20236;-80
2023/07/27 04:03:01;;;;;;;5.70;3.00;;;16.80;99.90;;;;;;5093477;28;20540;-80
2023/07/27 04:05:27;;;;;;;4.70;3.07;;;17.00;99.90;;;;;;5074907;28;20176;-82
2023/07/27 04:07:52;;;;;;;3.73;3.03;;;17.00;99.90;;;;;;5073917;28;20170;-80
2023/07/27 04:10:18;;;;;;;4.33;3.20;;;17.00;99.90;;;;;;5075236;28;20183;-81
2023/07/27 04:12:44;;;;;;;5.23;3.03;;;17.00;99.90;;;;;;5074067;28;20225;-82
2023/07/27 04:15:10;;;;;;;5.20;3.50;;;17.10;99.90;;;;;;5074380;28;20234;-80
2023/07/27 04:17:36;;;;;;;3.90;3.50;;;17.10;99.90;;;;;;5074864;28;20173;-80
2023/07/27 04:20:02;;;;;;;5.27;3.63;;;17.00;99.90;;;;;;5093095;28;20202;-80
2023/07/27 04:22:29;;;;;;;5.13;3.70;;;17.10;99.90;;;;;;5074516;28;20185;-81
2023/07/27 04:24:54;;;;;;;4.20;3.73;;;17.10;99.90;;;;;;5074467;28;20183;-80
2023/07/27 04:27:20;;;;;;;6.30;4.00;;;17.00;99.90;;;;;;5092851;28;20198;-80
2023/07/27 04:29:46;;;;;;;5.93;4.63;;;17.20;99.90;;;;;;5075391;28;20227;-80
2023/07/27 04:32:11;;;;;;;5.40;4.70;;;17.20;99.90;;;;;;5092412;28;20215;-81
2023/07/27 04:34:37;;;;;;;6.73;4.53;;;17.30;99.90;;;;;;5074368;28;20175;-81
2023/07/27 04:37:03;;;;;;;4.80;4.30;;;17.30;99.90;;;;;;5073806;28;20240;-81
2023/07/27 04:39:29;;;;;;;6.50;4.83;;;17.20;99.90;;;;;;5074946;28;20163;-80
2023/07/27 04:41:55;;;;;;;6.70;4.87;;;17.30;99.90;;;;;;5074987;28;20194;-81
2023/07/27 04:44:20;;;;;;;7.03;5.00;;;17.20;99.90;;;;;;5075375;28;20172;-81
2023/07/27 04:46:46;;;;;;;6.97;5.10;;;17.20;99.90;;;;;;5092514;28;20252;-80
2023/07/27 04:49:11;;;;;;;5.93;5.17;;;17.30;99.90;;;;;;5084858;28;20171;-80
2023/07/27 04:51:37;;;;;;;6.50;5.20;;;17.30;99.90;;;;;;5110759;28;20224;-79
2023/07/27 04:54:04;;;;;;;7.47;4.93;;;17.30;99.90;;;;;;5094711;28;20576;-80
2023/07/27 04:56:30;;;;;;;5.97;4.67;;;17.30;99.90;;;;;;5074595;28;20182;-80
2023/07/27 04:58:55;;;;;;;5.90;4.60;;;17.30;99.90;;;;;;5074773;28;20175;-80
2023/07/27 05:01:21;;;;;;;6.20;5.20;;;17.40;99.90;;;;;;5074185;28;20219;-80
2023/07/27 05:03:47;;;;;;;6.80;4.70;;;17.50;99.90;;;;;;5092594;28;20619;-81
2023/07/27 05:06:12;;;;;;;8.37;5.67;;;17.50;99.90;;;;;;5091833;28;20178;-81
2023/07/27 05:08:38;;;;;;;6.60;5.27;;;17.50;99.90;;;;;;5074114;28;20261;-81
2023/07/27 05:11:06;;;;;;;8.03;5.73;;;17.60;99.90;;;;;;5074187;28;20178;-80
2023/07/27 05:13:32;;;;;;;7.40;5.50;;;17.60;99.90;;;;;;5074586;28;20204;-82
2023/07/27 05:15:58;;;;;;;6.57;5.37;;;17.70;99.90;;;;;;5074260;28;20218;-80
2023/07/27 05:18:24;;;;;;;8.87;5.40;;;17.60;99.90;;;;;;5074445;28;20237;-80
2023/07/27 05:20:50;;;;;;;6.97;5.20;;;17.70;99.90;;;;;;5073413;28;20206;-80
2023/07/27 05:23:15;;;;;;;7.80;5.03;;;17.80;99.90;;;;;;5074159;28;20176;-81
2023/07/27 05:25:41;;;;;;;7.77;5.37;;;17.70;99.90;;;;;;5074090;28;20243;-83
2023/07/27 05:28:07;;;;;;;7.97;5.87;;;17.80;99.90;;;;;;5092192;28;20180;-81
2023/07/27 05:30:32;;;;;;;7.27;5.40;;;17.80;99.90;;;;;;5092141;28;20228;-82
2023/07/27 05:32:58;;;;;;;6.70;5.07;;;17.90;99.90;;;;;;5092195;28;20166;-81
2023/07/27 05:35:24;;;;;;;8.13;5.27;;;17.80;99.90;;;;;;5091753;28;20198;-82
2023/07/27 05:37:50;;;;;;;8.97;5.17;;;17.80;99.90;;;;;;5091776;28;20171;-82
2023/07/27 05:40:18;;;;;;;7.13;4.83;;;17.80;99.90;;;;;;5094723;28;20675;-82
2023/07/27 05:42:44;;;;;;;8.33;5.10;;;17.80;99.90;;;;;;5095353;28;20182;-82
2023/07/27 05:45:10;;;;;;;6.67;4.53;;;17.80;99.90;;;;;;5079766;28;20171;-81
2023/07/27 05:47:36;;;;;;;6.17;4.73;;;17.80;99.90;;;;;;5077059;28;20178;-82
2023/07/27 05:50:06;;;;;;;8.03;5.37;;;17.90;99.90;;;;;;5076728;28;20260;-83
2023/07/27 05:52:32;;;;;;;7.00;5.27;;;17.90;99.90;;;;;;5095533;28;20578;-83
2023/07/27 05:54:58;;;;;;;6.50;5.03;;;17.90;99.90;;;;;;5076606;28;20205;-82
2023/07/27 05:57:24;;;;;;;5.77;4.50;;;17.90;99.90;;;;;;5077048;28;20253;-83
2023/07/27 05:59:50;;;;;;;5.37;4.87;;;17.90;99.90;;;;;;5076209;28;20649;-82
2023/07/27 06:02:15;;;;;;;6.43;4.80;;;17.90;99.90;;;;;;5076903;28;20211;-83
2023/07/27 06:04:41;;;;;;;7.13;5.00;;;17.90;99.90;;;;;;5076483;28;20255;-82
2023/07/27 06:07:07;;;;;;;7.83;5.03;;;18.00;99.90;;;;;;5095256;28;20171;-81
2023/07/27 06:09:36;;;;;;;6.77;4.97;;;18.00;99.90;;;;;;5076601;28;20166;-82
2023/07/27 06:12:11;;;;;;;4.90;4.13;;;18.00;99.90;;;;;;5077329;28;20173;-82
2023/07/27 06:14:39;;;;;;;5.23;4.47;;;17.90;99.90;;;;;;5077416;28;20175;-81
2023/07/27 06:17:08;;;;;;;4.40;3.83;;;18.00;99.90;;;;;;5077410;28;20184;-81
2023/07/27 06:19:34;;;;;;;4.73;3.57;;;17.90;99.90;;;;;;5076583;28;20673;-82
2023/07/27 06:21:59;;;;;;;5.60;3.80;;;17.90;99.90;;;;;;5077008;28;20176;-82
2023/07/27 06:24:25;;;;;;;4.37;3.23;;;17.90;99.90;;;;;;5076363;28;20671;-82
2023/07/27 06:26:50;;;;;;;5.97;3.53;;;17.90;99.90;;;;;;5095042;28;20177;-82
2023/07/27 06:29:16;;;;;;;4.63;3.90;;;18.00;99.90;;;;;;5094812;28;20669;-82
2023/07/27 06:31:42;;;;;;;5.40;3.43;;;18.00;99.90;;;;;;5077009;28;20184;-80
2023/07/27 06:34:07;;;;;;;5.07;3.53;;;18.00;99.90;;;;;;5076256;28;20171;-81
2023/07/27 06:36:33;;;;;;;3.83;3.10;;;18.10;99.90;;;;;;5076731;28;20293;-83
2023/07/27 06:38:59;;;;;;;6.33;3.50;;;18.10;99.90;;;;;;5094706;28;20169;-83
2023/07/27 06:41:25;;;;;;;5.57;3.40;;;18.00;99.90;;;;;;5076580;28;20232;-82
2023/07/27 06:43:54;;;;;;;3.87;2.80;;;18.10;99.90;;;;;;5094599;28;20222;-81
2023/07/27 06:46:20;;;;;;;3.13;2.83;;;18.00;99.90;;;;;;5072191;28;20188;-82
2023/07/27 06:48:46;;;;;;;5.93;3.20;;;18.00;99.90;;;;;;5061216;28;20185;-81
2023/07/27 06:51:12;;;;;;;4.07;2.70;;;18.00;99.90;;;;;;5067467;28;20244;-83
2023/07/27 06:53:38;;;;;;;3.40;2.50;;;18.10;99.90;;;;;;5072910;28;20181;-82
2023/07/27 06:56:04;;;;;;;4.83;2.70;;;18.10;99.90;;;;;;5072086;28;20611;-82
2023/07/27 06:58:30;;;;;;;3.70;2.57;;;18.10;99.90;;;;;;5072571;28;20211;-82
2023/07/27 07:00:56;;;;;;;3.40;2.80;;;18.20;99.90;;;;;;5090867;28;20249;-83
2023/07/27 07:03:22;;;;;;;3.30;2.70;;;18.20;99.90;;;;;;5078761;28;20305;-82
2023/07/27 07:05:47;;;;;;;3.30;2.57;;;18.30;99.90;;;;;;5056824;28;20186;-79
2023/07/27 07:08:13;;;;;;;4.63;2.60;;;18.20;99.90;;;;;;5063609;28;20184;-80
2023/07/27 07:10:39;;;;;;;3.67;2.40;;;18.20;99.90;;;;;;5070421;28;20212;-81
2023/07/27 07:13:05;;;;;;;2.87;2.50;;;18.20;99.90;;;;;;5082624;28;20649;-81
2023/07/27 07:15:32;;;;;;;3.57;2.57;;;18.40;99.90;;;;;;5088231;28;20184;-82
2023/07/27 07:17:58;;;;;;;5.97;2.57;;;18.30;99.90;;;;;;5064143;28;20175;-81
2023/07/27 07:20:23;;;;;;;2.97;2.30;;;18.30;99.90;;;;;;5078908;28;20219;-82
2023/07/27 07:22:49;;;;;;;2.80;2.10;;;18.30;99.90;;;;;;5079495;28;20520;-82
2023/07/27 07:25:16;;;;;;;3.23;2.20;;;18.30;99.90;;;;;;5058707;28;20282;-82
2023/07/27 07:27:42;;;;;;;4.07;2.40;;;18.40;99.90;;;;;;5052780;28;20188;-81
2023/07/27 07:30:08;;;;;;;2.87;2.03;;;18.40;99.90;;;;;;5088869;28;20187;-82
2023/07/27 07:32:34;;;;;;;3.13;1.80;;;18.40;99.90;;;;;;5063132;28;20191;-81
2023/07/27 07:35:01;;;;;;;2.33;1.50;;;18.40;99.90;;;;;;5071213;28;20183;-82
2023/07/27 07:37:27;;;;;;;2.23;1.67;;;18.40;99.90;;;;;;5055080;28;20180;-82
2023/07/27 07:39:52;;;;;;;2.70;1.53;;;18.30;99.90;;;;;;5070681;28;20196;-82
2023/07/27 07:42:18;;;;;;;1.57;1.47;;;18.20;99.90;;;;;;5071241;28;20192;-82
2023/07/27 07:44:43;;;;;;;1.80;1.40;;;18.30;99.90;;;;;;5056484;28;20198;-80
2023/07/27 07:47:09;;;;;;;1.77;1.20;;;18.20;99.90;;;;;;5065932;28;20188;-80
2023/07/27 07:49:35;;;;;;;1.77;0.90;;;18.20;99.90;;;;;;5053211;28;20186;-79
2023/07/27 07:52:01;;;;;;;2.57;1.00;;;18.20;99.90;;;;;;5065753;28;20218;-82
2023/07/27 07:54:30;;;;;;;1.30;1.00;;;18.20;99.90;;;;;;5078265;28;20182;-82
2023/07/27 07:56:55;;;;;;;1.60;0.90;;;18.10;99.90;;;;;;5070093;28;20180;-82
2023/07/27 07:59:22;;;;;;;1.73;1.33;;;18.20;99.90;;;;;;5070246;28;20651;-82
2023/07/27 08:01:47;;;;;;;2.20;1.50;;;18.20;99.90;;;;;;5058844;28;20296;-82
2023/07/27 08:04:13;;;;;;;2.13;1.43;;;18.20;99.90;;;;;;5089993;28;20285;-84
2023/07/27 08:06:39;;;;;;;1.80;1.40;;;18.20;99.90;;;;;;5053691;28;20625;-80
2023/07/27 08:09:06;;;;;;;1.97;1.20;;;18.20;99.90;;;;;;5081914;28;20176;-81
2023/07/27 08:11:32;;;;;;;1.93;1.50;;;18.20;99.90;;;;;;5061353;28;20555;-80
2023/07/27 08:14:01;;;;;;;2.73;2.03;;;18.20;99.90;;;;;;5076887;28;20213;-81
2023/07/27 08:16:27;;;;;;;3.10;2.20;;;18.20;99.90;;;;;;5059693;28;20177;-80
2023/07/27 08:18:53;;;;;;;3.37;2.33;;;18.20;99.90;;;;;;5062671;28;20198;-82
2023/07/27 08:21:19;;;;;;;2.77;2.20;;;18.30;99.90;;;;;;5068806;28;20228;-82
2023/07/27 08:23:44;;;;;;;3.77;2.40;;;18.30;99.90;;;;;;5054819;28;20185;-80
2023/07/27 08:26:10;;;;;;;3.33;2.20;;;18.30;99.90;;;;;;5089482;28;20176;-80
2023/07/27 08:28:36;;;;;;;2.57;2.07;;;18.30;99.90;;;;;;5089529;28;20191;-81
2023/07/27 08:31:05;;;;;;;3.73;1.90;;;18.30;99.90;;;;;;5062310;28;20185;-83
2023/07/27 08:33:32;;;;;;;2.27;1.77;;;18.40;99.90;;;;;;5074704;28;20223;-82
2023/07/27 08:35:59;;;;;;;3.00;1.73;;;18.40;99.90;;;;;;5059663;28;20184;-81
2023/07/27 08:38:25;;;;;;;2.33;1.63;;;18.40;99.90;;;;;;5069784;28;20180;-80
2023/07/27 08:41:01;;;;;;;2.27;1.43;;;18.40;99.90;;;;;;5059011;28;20682;-82
2023/07/27 08:43:27;;;;;;;2.07;1.40;;;18.40;99.90;;;;;;5063202;28;20176;-82
2023/07/27 08:45:54;;;;;;;2.10;1.60;;;18.50;99.90;;;;;;5059400;28;20186;-82
2023/07/27 08:48:20;;;;;;;1.23;1.00;;;18.50;99.90;;;;;;5070720;28;20194;-81
2023/07/27 08:50:47;;;;;;;1.40;1.10;;;18.50;99.90;;;;;;5062959;28;20206;-82
2023/07/27 08:53:14;;;;;;;2.10;1.33;;;18.50;99.90;;;;;;5062450;28;20244;-82
2023/07/27 08:55:40;;;;;;;2.27;1.20;;;18.50;99.90;;;;;;5060583;28;20189;-81
2023/07/27 08:58:07;;;;;;;1.17;0.80;;;18.50;99.90;;;;;;5050174;28;20180;-82
2023/07/27 09:00:33;;;;;;;0.97;0.80;;;18.50;99.90;;;;;;5067986;28;20599;-82
2023/07/27 09:03:00;;;;;;;2.60;1.13;;;18.50;99.90;;;;;;5070780;28;20183;-82
2023/07/27 09:05:58;;;;;;;0.97;0.80;;;18.60;99.90;;;;;;5064302;28;20590;-82
2023/07/27 09:08:27;;;;;;;0.93;0.77;;;18.60;99.90;;;;;;5066449;28;20186;-80
2023/07/27 09:10:53;;;;;;;0.70;0.67;;;18.70;99.90;;;;;;5062922;28;20269;-82
2023/07/27 09:13:18;;;;;;;3.13;1.10;;;18.60;99.90;;;;;;5051479;28;20325;-82
2023/07/27 09:15:45;;;;;;;1.30;0.70;;;18.70;99.90;;;;;;5077320;28;20181;-81
2023/07/27 09:18:12;;;;;;;1.37;1.00;;;18.60;99.90;;;;;;5092000;28;20667;-81
2023/07/27 09:20:42;;;;;;;1.80;1.00;;;18.70;99.90;;;;;;5075809;28;20731;-81
2023/07/27 09:23:08;;;;;;;0.93;0.70;;;18.60;99.90;;;;;;5073725;28;20645;-82
2023/07/27 09:25:34;;;;;;;1.20;0.90;;;18.60;99.90;;;;;;5067616;28;20177;-81
2023/07/27 09:27:59;;;;;;;2.17;1.30;;;18.60;99.90;;;;;;5082269;28;20178;-82
2023/07/27 09:30:26;;;;;;;3.37;2.00;;;18.60;99.90;;;;;;5066633;28;20285;-81
2023/07/27 09:32:53;;;;;;;1.73;1.00;;;18.70;99.90;;;;;;5081187;28;20185;-81
2023/07/27 09:35:20;;;;;;;4.03;2.10;;;18.70;99.90;;;;;;5065928;28;20209;-82
2023/07/27 09:37:51;;;;;;;1.63;1.10;;;18.70;99.90;;;;;;5069608;28;20225;-82
2023/07/27 09:40:24;;;;;;;1.87;1.27;;;18.70;99.90;;;;;;5062915;28;20319;-81
2023/07/27 09:42:51;;;;;;;1.67;1.20;;;18.60;99.90;;;;;;5054051;28;20185;-81
2023/07/27 09:45:20;;;;;;;1.53;1.10;;;18.50;99.90;;;;;;5053990;28;20189;-80
2023/07/27 09:47:46;;;;;;;1.73;1.40;;;18.50;99.90;;;;;;5094696;28;20190;-83
2023/07/27 09:50:12;;;;;;;2.47;1.47;;;18.50;99.90;;;;;;5073606;28;20229;-83
2023/07/27 09:52:45;;;;;;;1.33;1.23;;;18.50;99.90;;;;;;5055616;28;20708;-82
2023/07/27 09:55:12;;;;;;;1.73;1.20;;;18.50;99.90;;;;;;5052859;28;20187;-80
2023/07/27 09:57:40;;;;;;;2.03;1.40;;;18.50;99.90;;;;;;5076723;28;20667;-81
2023/07/27 10:00:08;;;;;;;1.60;1.40;;;18.50;99.90;;;;;;5091052;28;20196;-82
2023/07/27 10:02:34;;;;;;;1.87;1.20;;;18.50;99.90;;;;;;5087724;28;20207;-81
2023/07/27 10:05:03;;;;;;;1.90;1.40;;;18.50;99.90;;;;;;5055608;28;20248;-80
2023/07/27 10:07:28;;;;;;;1.87;1.43;;;18.50;99.90;;;;;;5066567;28;20187;-81
2023/07/27 10:10:31;;;;;;;2.30;1.77;;;18.50;99.90;;;;;;5091743;28;20185;-81
2023/07/27 10:12:58;;;;;;;2.60;1.67;;;18.40;99.90;;;;;;5070187;28;20193;-80
2023/07/27 10:15:29;;;;;;;3.20;2.23;;;18.50;99.90;;;;;;5061747;28;20176;-83
2023/07/27 10:17:59;;;;;;;2.37;1.80;;;18.50;99.90;;;;;;5066329;28;20548;-81
2023/07/27 10:20:35;;;;;;;2.87;1.80;;;18.50;99.90;;;;;;5070015;28;20302;-82
2023/07/27 10:23:09;;;;;;;3.33;1.80;;;18.50;99.90;;;;;;5091072;28;20175;-82
2023/07/27 10:26:02;;;;;;;3.10;1.93;;;18.50;99.90;;;;;;5080155;28;20186;-81
2023/07/27 10:28:42;;;;;;;4.20;2.23;;;18.50;99.90;;;;;;5049498;28;20357;-83
2023/07/27 10:31:13;;;;;;;2.40;2.00;;;18.50;99.90;;;;;;5062276;28;20176;-82
2023/07/27 10:33:49;;;;;;;2.97;2.30;;;18.50;99.90;;;;;;5066529;28;20260;-81
2023/07/27 10:36:20;;;;;;;3.13;2.10;;;18.50;99.90;;;;;;5065328;28;20190;-81
2023/07/27 10:38:56;;;;;;;3.17;2.10;;;18.60;99.90;;;;;;5071623;28;20188;-81
2023/07/27 10:41:26;;;;;;;2.50;2.00;;;18.60;99.90;;;;;;5074069;28;20302;-81
2023/07/27 10:44:06;;;;;;;3.73;2.53;;;18.60;99.90;;;;;;5080018;28;20179;-82
2023/07/27 10:46:35;;;;;;;2.70;2.30;;;18.70;99.90;;;;;;5080280;28;20174;-80
2023/07/27 10:49:18;;;;;;;3.53;2.20;;;18.80;99.90;;;;;;5083377;28;20176;-82
2023/07/27 10:51:48;;;;;;;2.60;1.90;;;18.80;99.90;;;;;;5068334;28;20184;-81
2023/07/27 10:54:14;;;;;;;3.53;2.07;;;18.90;99.90;;;;;;5091128;28;20169;-79
2023/07/27 10:56:44;;;;;;;2.87;2.00;;;18.90;99.90;;;;;;5071270;28;20179;-82
2023/07/27 10:59:14;;;;;;;3.13;1.80;;;18.90;99.90;;;;;;5053112;28;20202;-82
2023/07/27 11:01:40;;;;;;;3.53;1.87;;;18.90;99.90;;;;;;5053063;28;20335;-82
2023/07/27 11:04:06;;;;;;;2.63;1.70;;;18.90;99.90;;;;;;5053580;28;20255;-82
2023/07/27 11:06:42;;;;;;;2.93;1.70;;;19.00;99.90;;;;;;5073226;28;20186;-80
2023/07/27 11:09:16;;;;;;;2.60;1.77;;;19.00;99.90;;;;;;5059473;28;20537;-81
2023/07/27 11:11:43;;;;;;;2.43;1.70;;;19.10;99.90;;;;;;5081725;28;20174;-82
2023/07/27 11:14:09;;;;;;;2.30;1.80;;;19.10;99.90;;;;;;5072771;28;20266;-84
2023/07/27 11:16:38;;;;;;;1.93;1.63;;;19.10;99.90;;;;;;5054625;28;20279;-81
2023/07/27 11:19:08;;;;;;;2.07;1.60;;;19.10;99.90;;;;;;5064014;28;20181;-81
2023/07/27 11:21:38;;;;;;;2.03;1.63;;;19.10;99.90;;;;;;5059324;28;20218;-82
2023/07/27 11:24:06;;;;;;;2.23;1.67;;;19.10;99.90;;;;;;5058021;28;20233;-82
2023/07/27 11:26:32;;;;;;;2.80;1.87;;;19.10;99.90;;;;;;5088182;28;20167;-82
2023/07/27 11:29:00;;;;;;;3.90;2.00;;;19.20;99.90;;;;;;5072315;28;20220;-82
2023/07/27 11:31:26;;;;;;;2.27;1.70;;;19.20;99.90;;;;;;5072301;28;20189;-82
2023/07/27 11:34:00;;;;;;;2.60;1.80;;;19.20;99.90;;;;;;5087069;28;20226;-82
2023/07/27 11:36:29;;;;;;;2.30;1.80;;;19.20;99.90;;;;;;5064804;28;20181;-81
2023/07/27 11:38:55;;;;;;;3.27;1.73;;;19.20;99.90;;;;;;5061537;28;20650;-82
2023/07/27 11:41:21;;;;;;;4.73;1.50;;;19.20;99.90;;;;;;5088047;28;20208;-82
2023/07/27 11:43:51;;;;;;;2.17;1.30;;;19.20;99.90;;;;;;5089938;28;20206;-82
2023/07/27 11:46:17;;;;;;;1.90;1.47;;;19.30;99.90;;;;;;5102403;28;20180;-81
2023/07/27 11:48:45;;;;;;;2.07;1.57;;;19.30;99.90;;;;;;5080207;28;20171;-83
2023/07/27 11:51:13;;;;;;;2.10;1.43;;;19.30;99.90;;;;;;5070105;28;20170;-83
2023/07/27 11:53:39;;;;;;;2.60;1.27;;;19.30;99.90;;;;;;5065621;28;20194;-82
2023/07/27 11:56:09;;;;;;;2.77;1.47;;;19.30;99.90;;;;;;5060036;28;20646;-82
2023/07/27 11:58:36;;;;;;;2.40;1.40;;;19.30;99.90;;;;;;5065322;28;20653;-82
2023/07/27 12:01:03;;;;;;;1.30;1.20;;;19.20;99.90;;;;;;5082640;28;20601;-80
2023/07/27 12:03:31;;;;;;;1.63;1.30;;;19.20;99.90;;;;;;5068300;28;20220;-81
2023/07/27 12:05:56;;;;;;;1.87;1.40;;;19.20;99.90;;;;;;5051742;28;20723;-82
2023/07/27 12:08:22;;;;;;;1.50;1.20;;;19.20;99.90;;;;;;5052405;28;20263;-83
2023/07/27 12:10:59;;;;;;;1.23;1.10;;;19.20;99.90;;;;;;5058828;28;20672;-81
2023/07/27 12:13:25;;;;;;;2.23;1.03;;;19.20;99.90;;;;;;5088337;28;20771;-81
2023/07/27 12:16:02;;;;;;;1.47;1.07;;;19.10;99.90;;;;;;5055940;28;20674;-81
2023/07/27 12:18:30;;;;;;;1.10;1.00;;;18.90;99.90;;;;;;5062385;28;20272;-81
2023/07/27 12:20:57;;;;;;;2.00;1.20;;;18.90;99.90;;;;;;5054777;28;20588;-81
2023/07/27 12:23:24;;;;;;;2.17;1.10;;;18.90;99.90;;;;;;5067420;28;20279;-83
2023/07/27 12:25:50;;;;;;;3.60;1.70;;;18.90;99.90;;;;;;5063887;28;20202;-81
2023/07/27 12:28:17;;;;;;;2.27;1.30;;;19.00;99.90;;;;;;5049528;28;20178;-82
2023/07/27 12:30:42;;;;;;;2.10;1.57;;;19.00;99.90;;;;;;5074926;28;20639;-81
2023/07/27 12:33:09;;;;;;;2.40;1.73;;;19.00;99.90;;;;;;5062882;28;20185;-83
2023/07/27 12:35:34;;;;;;;2.20;1.80;;;19.00;99.90;;;;;;5067786;28;20270;-81
2023/07/27 12:38:00;;;;;;;2.47;1.93;;;19.00;99.90;;;;;;5071481;28;20762;-81
2023/07/27 12:40:26;;;;;;;11.73;10.53;;;19.00;99.90;;;;;;5081623;28;20197;-82
2023/07/27 12:42:52;;;;;;;8.90;8.00;;;19.00;99.90;;;;;;5071460;28;20598;-81
2023/07/27 12:45:19;;;;;;;4.50;3.20;;;19.00;99.90;;;;;;5077516;28;20261;-81
2023/07/27 12:47:45;;;;;;;14.70;13.13;;;19.20;99.90;;;;;;5056134;28;20210;-84